createdAt,value
2023-01-28T00:03:39.448Z,97807.00
2023-01-28T00:08:41.141Z,97804.00
2023-01-28T00:13:42.435Z,97807.00
2023-01-28T00:18:43.445Z,97806.00
2023-01-28T00:23:51.512Z,97793.00
2023-01-28T00:28:52.404Z,97792.00
2023-01-28T00:33:55.178Z,97799.00
2023-01-28T00:38:58.021Z,97800.00
2023-01-28T00:43:59.033Z,97801.00
2023-01-28T00:49:00.977Z,97793.00
2023-01-28T00:54:01.963Z,97800.00
2023-01-28T00:59:02.861Z,97802.00
2023-01-28T01:04:09.632Z,97795.00
2023-01-28T01:09:10.953Z,97796.00
2023-01-28T01:14:11.861Z,97796.00
2023-01-28T01:19:14.291Z,97798.00
2023-01-28T01:24:17.238Z,97806.00
2023-01-28T01:29:18.116Z,97806.00
2023-01-28T01:34:18.876Z,97809.00
2023-01-28T01:39:19.684Z,97811.00
2023-01-28T01:48:10.597Z,97824.00
2023-01-28T01:53:20.185Z,97835.00
2023-01-28T01:58:25.376Z,97823.00
2023-01-28T02:03:34.419Z,97825.00
2023-01-28T02:08:35.250Z,97822.00
2023-01-28T02:13:40.755Z,97823.00
2023-01-28T02:18:41.765Z,97823.00
2023-01-28T02:25:49.050Z,97824.00
2023-01-28T02:31:08.396Z,97821.00
2023-01-28T02:37:01.991Z,97818.00
2023-01-28T02:42:12.813Z,97826.00
2023-01-28T02:47:33.648Z,97823.00
2023-01-28T02:53:37.672Z,97828.00
2023-01-28T02:59:29.826Z,97833.00
2023-01-28T03:04:35.757Z,97844.00
2023-01-28T03:09:39.323Z,97840.00
2023-01-28T03:15:01.053Z,97848.00
2023-01-28T03:20:20.884Z,97849.00
2023-01-28T03:25:43.773Z,97855.00
2023-01-28T03:31:12.494Z,97860.00
2023-01-28T03:36:41.920Z,97861.00
2023-01-28T03:43:40.478Z,97865.00
2023-01-28T03:48:41.551Z,97864.00
2023-01-28T03:53:43.248Z,97885.00
2023-01-28T03:58:56.177Z,97884.00
2023-01-28T04:03:57.555Z,97892.00
2023-01-28T04:09:01.530Z,97895.00
2023-01-28T04:14:06.248Z,97891.00
2023-01-28T04:19:16.340Z,97894.00
2023-01-28T04:24:19.794Z,97906.00
2023-01-28T04:29:20.858Z,97903.00
2023-01-28T04:34:23.510Z,97902.00
2023-01-28T04:39:42.629Z,97901.00
2023-01-28T04:46:05.113Z,97900.00
2023-01-28T04:51:14.963Z,97903.00
2023-01-28T04:56:25.168Z,97907.00
2023-01-28T05:01:26.134Z,97905.00
2023-01-28T05:06:27.712Z,97905.00
2023-01-28T05:11:30.827Z,97923.00
2023-01-28T05:16:35.035Z,97929.00
2023-01-28T05:21:37.281Z,97932.00
2023-01-28T05:26:43.289Z,97927.00
2023-01-28T05:31:44.513Z,97927.00
2023-01-28T05:36:45.972Z,97929.00
2023-01-28T05:42:04.188Z,97930.00
2023-01-28T05:47:07.320Z,97942.00
2023-01-28T05:52:21.863Z,97924.00
2023-01-28T05:57:22.777Z,97931.00
2023-01-28T06:02:24.551Z,97937.00
2023-01-28T06:07:28.809Z,97938.00
2023-01-28T06:12:31.418Z,97952.00
2023-01-28T06:18:08.443Z,97961.00
2023-01-28T06:23:09.361Z,97959.00
2023-01-28T06:28:10.629Z,97961.00
2023-01-28T06:33:11.441Z,97957.00
2023-01-28T06:38:13.258Z,97962.00
2023-01-28T06:43:13.978Z,97964.00
2023-01-28T06:48:14.867Z,97977.00
2023-01-28T06:53:17.277Z,97973.00
2023-01-28T06:58:18.025Z,97974.00
2023-01-28T07:03:18.998Z,97984.00
2023-01-28T07:08:19.924Z,97988.00
2023-01-28T07:13:20.944Z,97993.00
2023-01-28T07:18:21.825Z,98002.00
2023-01-28T07:23:22.701Z,97993.00
2023-01-28T07:28:23.454Z,97991.00
2023-01-28T07:33:24.333Z,97993.00
2023-01-28T07:38:25.157Z,97988.00
2023-01-28T07:43:25.936Z,97992.00
2023-01-28T07:48:26.729Z,97993.00
2023-01-28T07:53:27.498Z,97992.00
2023-01-28T07:58:28.255Z,97997.00
2023-01-28T08:03:29.154Z,97997.00
2023-01-28T08:08:30.312Z,97998.00
2023-01-28T08:13:31.096Z,98008.00
2023-01-28T08:18:31.893Z,98012.00
2023-01-28T08:23:35.252Z,98014.00
2023-01-28T08:28:35.978Z,98024.00
2023-01-28T08:33:37.182Z,98018.00
2023-01-28T08:38:37.883Z,98023.00
2023-01-28T08:43:39.464Z,98022.00
2023-01-28T08:48:40.280Z,98020.00
2023-01-28T08:53:41.155Z,98021.00
2023-01-28T08:58:41.988Z,98017.00
2023-01-28T09:03:42.849Z,98030.00
2023-01-28T09:08:43.612Z,98045.00
2023-01-28T09:13:44.342Z,98030.00
2023-01-28T09:18:45.349Z,98037.00
2023-01-28T09:23:46.288Z,98042.00
2023-01-28T09:28:47.510Z,98041.00
2023-01-28T09:33:54.197Z,98047.00
2023-01-28T09:38:55.322Z,98051.00
2023-01-28T09:50:48.009Z,98055.00
2023-01-28T09:56:45.485Z,98070.00
2023-01-28T10:02:18.185Z,98080.00
2023-01-28T10:07:46.488Z,98076.00
2023-01-28T10:13:30.627Z,98080.00
2023-01-28T10:18:39.620Z,98083.00
2023-01-28T10:23:54.854Z,98094.00
2023-01-28T10:28:59.803Z,98097.00
2023-01-28T10:34:02.483Z,98099.00
2023-01-28T10:39:05.880Z,98103.00
2023-01-28T10:44:16.416Z,98101.00
2023-01-28T10:49:29.676Z,98095.00
2023-01-28T10:54:30.607Z,98091.00
2023-01-28T10:59:35.802Z,98103.00
2023-01-28T11:04:36.611Z,98101.00
2023-01-28T11:09:37.722Z,98105.00
2023-01-28T11:14:49.046Z,98095.00
2023-01-28T11:19:52.871Z,98105.00
2023-01-28T11:24:53.984Z,98104.00
2023-01-28T11:29:57.554Z,98104.00
2023-01-28T11:34:59.642Z,98098.00
2023-01-28T11:40:02.331Z,98090.00
2023-01-28T11:45:14.737Z,98090.00
2023-01-28T11:53:12.315Z,98079.00
2023-01-28T11:58:21.428Z,98081.00
2023-01-28T12:04:03.142Z,98078.00
2023-01-28T12:10:33.242Z,98075.00
2023-01-28T12:19:19.409Z,98083.00
2023-01-28T12:26:18.034Z,98067.00
2023-01-28T12:38:09.028Z,98072.00
2023-01-28T12:43:41.076Z,98059.00
2023-01-28T12:48:53.144Z,98066.00
2023-01-28T12:54:05.253Z,98065.00
2023-01-28T12:59:17.232Z,98058.00
2023-01-28T13:05:56.860Z,98058.00
2023-01-28T13:11:02.598Z,98053.00
2023-01-28T13:16:06.970Z,98057.00
2023-01-28T13:21:15.126Z,98051.00
2023-01-28T13:26:58.310Z,98068.00
2023-01-28T13:32:02.392Z,98077.00
2023-01-28T13:37:28.296Z,98077.00
2023-01-28T13:42:30.418Z,98081.00
2023-01-28T13:47:36.218Z,98095.00
2023-01-28T13:52:50.150Z,98092.00
2023-01-28T14:01:19.536Z,98090.00
2023-01-28T14:10:14.994Z,98091.00
2023-01-28T14:15:21.684Z,98101.00
2023-01-28T14:20:32.118Z,98089.00
2023-01-28T14:26:17.236Z,98092.00
2023-01-28T14:31:27.187Z,98098.00
2023-01-28T14:36:28.137Z,98099.00
2023-01-28T14:41:29.414Z,98098.00
2023-01-28T14:46:40.599Z,98087.00
2023-01-28T14:58:11.827Z,98094.00
2023-01-28T15:03:24.917Z,98082.00
2023-01-28T15:08:26.409Z,98089.00
2023-01-28T15:13:31.857Z,98091.00
2023-01-28T15:18:37.025Z,98087.00
2023-01-28T15:23:41.150Z,98085.00
2023-01-28T15:28:44.034Z,98075.00
2023-01-28T15:33:44.859Z,98076.00
2023-01-28T15:38:45.657Z,98075.00
2023-01-28T15:43:48.540Z,98087.00
2023-01-28T15:48:58.823Z,98086.00
2023-01-28T15:54:04.103Z,98073.00
2023-01-28T15:59:21.395Z,98073.00
2023-01-28T16:04:25.689Z,98076.00
2023-01-28T16:09:29.862Z,98096.00
2023-01-28T16:14:43.492Z,98096.00
2023-01-28T16:19:48.216Z,98111.00
2023-01-28T16:24:54.904Z,98107.00
2023-01-28T16:29:55.863Z,98119.00
2023-01-28T16:34:56.739Z,98114.00
2023-01-28T16:39:59.093Z,98123.00
2023-01-28T16:45:04.018Z,98127.00
2023-01-28T16:50:05.633Z,98128.00
2023-01-28T16:55:11.322Z,98119.00
2023-01-28T17:00:22.339Z,98117.00
2023-01-28T17:05:23.288Z,98123.00
2023-01-28T17:10:25.136Z,98123.00
2023-01-28T17:15:26.407Z,98123.00
2023-01-28T17:20:27.221Z,98133.00
2023-01-28T17:25:27.987Z,98136.00
2023-01-28T17:30:28.758Z,98142.00
2023-01-28T17:35:30.158Z,98136.00
2023-01-28T17:40:38.336Z,98134.00
2023-01-28T17:45:39.319Z,98126.00
2023-01-28T17:50:40.394Z,98131.00
2023-01-28T17:55:41.128Z,98151.00
2023-01-28T18:00:42.370Z,98170.00
2023-01-28T18:05:43.577Z,98186.00
2023-01-28T18:10:44.381Z,98182.00
2023-01-28T18:15:45.118Z,98182.00
2023-01-28T18:20:45.928Z,98196.00
2023-01-28T18:25:46.685Z,98198.00
2023-01-28T18:30:47.484Z,98221.00
2023-01-28T18:35:48.879Z,98230.00
2023-01-28T18:40:54.707Z,98216.00
2023-01-28T18:45:55.877Z,98218.00
2023-01-28T18:50:57.667Z,98214.00
2023-01-28T18:56:03.479Z,98215.00
2023-01-28T19:01:09.449Z,98221.00
2023-01-28T19:06:11.808Z,98222.00
2023-01-28T19:11:12.613Z,98214.00
2023-01-28T19:16:13.459Z,98228.00
2023-01-28T19:21:14.451Z,98225.00
2023-01-28T19:26:20.062Z,98232.00
2023-01-28T19:31:23.411Z,98238.00
2023-01-28T19:36:26.621Z,98228.00
2023-01-28T19:41:28.246Z,98238.00
2023-01-28T19:46:29.311Z,98248.00
2023-01-28T19:51:31.047Z,98244.00
2023-01-28T19:56:35.251Z,98227.00
2023-01-28T20:01:36.379Z,98226.00
2023-01-28T20:06:37.819Z,98218.00
2023-01-28T20:11:39.047Z,98247.00
2023-01-28T20:16:40.369Z,98243.00
2023-01-28T20:21:41.159Z,98254.00
2023-01-28T20:26:42.968Z,98253.00
2023-01-28T20:31:44.279Z,98265.00
2023-01-28T20:36:45.821Z,98275.00
2023-01-28T20:41:46.632Z,98267.00
2023-01-28T20:46:47.440Z,98271.00
2023-01-28T20:51:50.850Z,98262.00
2023-01-28T20:56:52.652Z,98252.00
2023-01-28T21:01:53.523Z,98251.00
2023-01-28T21:06:54.541Z,98256.00
2023-01-28T21:11:55.312Z,98254.00
2023-01-28T21:16:56.213Z,98260.00
2023-01-28T21:21:57.092Z,98262.00
2023-01-28T21:26:57.964Z,98266.00
2023-01-28T21:31:58.809Z,98267.00
2023-01-28T21:36:59.666Z,98265.00
2023-01-28T21:42:00.439Z,98253.00
2023-01-28T21:47:01.354Z,98250.00
2023-01-28T21:52:02.087Z,98247.00
2023-01-28T21:57:03.059Z,98241.00
2023-01-28T22:02:10.704Z,98243.00
2023-01-28T22:07:13.655Z,98250.00
2023-01-28T22:12:14.994Z,98242.00
2023-01-28T22:17:17.797Z,98243.00
2023-01-28T22:22:18.609Z,98239.00
2023-01-28T22:27:19.379Z,98239.00
2023-01-28T22:32:20.164Z,98239.00
2023-01-28T22:37:20.969Z,98244.00
2023-01-28T22:42:21.762Z,98247.00
2023-01-28T22:47:22.782Z,98245.00
2023-01-28T22:52:23.576Z,98247.00
2023-01-28T22:57:24.389Z,98242.00
2023-01-28T23:02:25.171Z,98243.00
2023-01-28T23:07:26.443Z,98238.00
2023-01-28T23:12:27.375Z,98224.00
2023-01-28T23:17:46.313Z,98212.00
2023-01-28T23:23:05.774Z,98206.00
2023-01-28T23:28:06.639Z,98211.00
2023-01-28T23:33:07.692Z,98217.00
2023-01-28T23:38:08.475Z,98220.00
2023-01-28T23:43:09.229Z,98215.00
2023-01-28T23:48:09.959Z,98212.00
2023-01-28T23:53:12.766Z,98211.00
2023-01-28T23:58:13.476Z,98200.00
